map of LRU home
LRU - Airport
Location
City:  Las Cruces, New Mexico, United States
Name:Las Cruces International Airport
ICAO:KLRU
IATA:LRU
FAA LID:LRU

Details
Type:Airport (Part 139 Class IV)
Use:Public/Civil
Latitude:3217'22"N (32.289417)
Longitude:10655'19"W (-106.921971)
Datum:WGS 1984
Elevation:4456 ft (1358 m)
Variation:8.27E (WMM2015v2 magnetic declination)
-0.10 annual change
Runways:3
Longest:7506 × 100 ft (2288 × 30.5 m), paved

Time
Time Zone:UTC-7 (DST-6)
Local Time:

Weather
METAR:KLRU 041415Z AUTO 00000KT 10SM SCT080 07/07 A2998 RMK AO2 T00660066
TAF:KLRU 041139Z 0412/0512 28006KT P6SM BKN070 BKN150
FM041800 24020G28KT P6SM SCT070 BKN150
FM050400 26010KT P6SM SCT070 OVC220

Related Locations
Nearby:
Farthest:RRG: 11383 mi / 18319 km
Plaine Corail [Sir Gatan Duval Airport (Plaine Corail Airport)], Rodrigues Island, MU

Find:

   beyond  
but within

Other Information
Maps:
NOTAMs:
Links:
Sources:

  
  • flag of United States
  • flag of New Mexico
  

Sectional Chart

Flight Planning
at skyvector.com

Satellite Image

Google Maps Satellite view

 

Copyright © 2004-2019 Karl L. Swartz. All rights reserved.
The Great Circle Mapper name and logo are trademarks of the Great Circle Mapper.
All other trademarks mentioned herein belong to their respective owners.
Please see credits for attibutions and further copyright information.

  Follow gcmap on Facebook Follow gcmap on Twitter GCmap on LinkedIn

hCard Microformat

Geo Microformat